Basenerd Banner
Loading games...
Cole Young
Cole Young
Seattle Mariners • Second Base
Age 23 • 5' 10" • 180 lb
Bats: L • Throws: R
MLB Debut: 2025-05-31
Born: Pittsburgh , PA • USA
Draft: 2022
2026 Stats
G
137
AB
500
H
122
HR
16
RBI
57
R
64
SB
3
AVG
.244
OBP
.306
SLG
.384
OPS
.690
Career Stats
G
214
AB
723
H
169
HR
20
RBI
81
R
88
SB
4
AVG
.234
OBP
.305
SLG
.360
OPS
.665
Year-by-Year Hitting
Year Team GPAABH HRRBISB AVGOBPSLGOPSAwards
2025 SEA 77 257 223 47 4 24 1 .211 .302 .305 .607
2026 SEA 137 550 500 122 16 57 3 .244 .306 .384 .690
Spring Training
Hitting
YearTeamGPAABHHRRBISBAVGOBPSLGOPS
2023 SEA 11 .0001.000.0001.000
2024 SEA 1425248 26 .333.320.667.987
2025 SEA 1322214 1 .190.227.238.465
2026 SEA 19635716 6183 .281.349.6671.016
Game Logs
Season selector loads one year at a time.
Hitting
Date Opponent AB H 2B 3B HR RBI R BB SO
2026-08-31 @ BOS 4 0 0 0 0 0 2 0 1
2026-08-30 @ TOR 2 0 0 0 0 0 0 1 1
2026-08-29 @ TOR 3 0 0 0 0 0 0 1 0
2026-08-28 @ TOR 4 1 1 0 0 0 0 0 1
2026-08-25 vs PHI 4 0 0 0 0 0 0 0 0
2026-08-24 vs PHI 4 1 0 0 1 1 1 0 0
2026-08-23 vs CHC 4 0 0 0 0 0 0 0 1
2026-08-22 vs CHC 4 0 0 0 0 0 0 0 1
2026-08-21 vs CHC 3 1 0 0 0 0 1 1 1
2026-08-20 @ MIL 3 0 0 0 0 0 1 1 1
2026-08-19 @ MIL 4 0 0 0 0 0 1 1 2
2026-08-18 @ MIL 4 0 0 0 0 0 0 0 2
2026-08-16 @ HOU 3 0 0 0 0 0 0 0 1
2026-08-15 @ HOU 5 3 0 0 1 4 3 0 0
2026-08-14 @ HOU 6 0 0 0 0 0 0 0 2
2026-08-13 @ NYY 1 0 0 0 0 0 0 0 0
2026-08-12 @ NYY 4 1 0 0 0 0 1 0 0
2026-08-11 @ NYY 4 0 0 0 0 0 0 0 0
2026-08-09 vs TB 4 2 0 0 0 1 0 0 1
2026-08-08 vs TB 4 1 0 0 0 0 0 0 1
2026-08-07 vs TB 4 1 0 0 0 0 0 0 1
2026-08-06 vs DET 3 0 0 0 0 0 0 1 0
2026-08-05 vs DET 4 0 0 0 0 0 0 0 0
2026-08-04 vs DET 2 0 0 0 0 0 0 2 0
2026-08-02 vs MIN 5 4 0 0 0 1 1 0 0
2026-08-01 vs MIN 5 2 1 0 0 0 1 0 0
2026-07-31 vs MIN 4 1 0 0 1 1 1 0 2
2026-07-30 @ LAD 5 2 0 1 0 0 1 0 0
2026-07-29 @ LAD 3 2 0 0 0 1 0 1 1
2026-07-28 @ LAD 4 1 0 0 0 0 0 0 0
2026-07-27 @ TEX 3 1 0 0 0 0 0 1 0
2026-07-26 @ TEX 5 2 0 1 0 0 2 0 0
2026-07-25 @ TEX 4 0 0 0 0 0 0 0 0
2026-07-24 @ TEX 4 3 0 0 0 0 0 0 0
2026-07-22 vs CIN 4 0 0 0 0 0 0 0 2
2026-07-21 vs CIN 5 0 0 0 0 0 0 0 0
2026-07-20 vs CIN 3 0 0 0 0 0 0 1 0
2026-07-19 vs SF 4 3 0 0 1 2 2 0 1
2026-07-18 vs SF 4 2 0 0 1 3 1 0 0
2026-07-17 vs SF 3 0 0 0 0 0 0 0 0
2026-07-12 @ TB 4 1 0 0 0 0 1 0 0
2026-07-11 @ TB 4 1 1 0 0 0 1 0 1
2026-07-10 @ TB 3 1 0 0 1 1 1 0 1
2026-07-09 @ MIA 3 0 0 0 0 0 0 1 1
2026-07-08 @ MIA 4 0 0 0 0 0 0 0 1
2026-07-07 @ MIA 3 1 0 0 1 1 1 1 0
2026-07-05 vs TOR 4 0 0 0 0 0 1 0 1
2026-07-04 vs TOR 3 1 1 0 0 0 1 0 2
2026-07-03 vs TOR 3 1 0 0 0 0 0 0 1
2026-07-02 vs LAA 3 0 0 0 0 0 0 0 2
2026-06-30 vs LAA 3 1 0 0 0 1 2 1 1
2026-06-29 vs LAA 3 3 0 0 2 3 2 0 0
2026-06-28 @ CLE 5 2 0 0 0 0 1 0 0
2026-06-27 @ CLE 4 1 0 0 0 0 0 0 0
2026-06-26 @ CLE 4 1 0 0 0 0 0 0 1
2026-06-25 @ PIT 4 0 0 0 0 0 0 0 1
2026-06-24 @ PIT 3 1 1 0 0 0 0 0 0
2026-06-23 @ PIT 3 1 0 0 1 2 1 1 0
2026-06-21 vs BOS 3 1 0 0 0 1 0 0 0
2026-06-20 vs BOS 3 0 0 0 0 0 0 0 1
2026-06-19 vs BOS 3 0 0 0 0 0 0 1 0
2026-06-18 vs BAL 3 1 1 0 0 1 1 0 0
2026-06-17 vs BAL 4 1 0 0 1 1 1 0 0
2026-06-16 vs BAL 4 0 0 0 0 0 0 0 0
2026-06-14 @ WSH 4 1 0 0 0 0 1 0 1
2026-06-13 @ WSH 5 2 0 0 0 0 0 0 1
2026-06-12 @ WSH 5 2 0 0 0 0 1 0 0
2026-06-11 @ BAL 5 3 0 0 1 1 1 0 1
2026-06-10 @ BAL 4 1 0 0 0 0 0 0 0
2026-06-09 @ BAL 4 0 0 0 0 0 0 0 0
2026-06-08 @ BAL 5 1 0 0 0 0 1 0 1
2026-06-07 @ DET 5 2 0 0 0 1 0 0 1
2026-06-06 @ DET 4 1 0 0 0 0 0 0 0
2026-06-05 @ DET 4 1 0 0 0 0 0 0 0
2026-06-03 vs NYM 4 1 0 0 0 0 0 0 0
2026-06-02 vs NYM 4 1 0 0 0 0 1 0 1
2026-06-01 vs NYM 3 2 0 0 0 1 0 1 0
2026-05-31 vs AZ 4 1 0 0 1 1 1 0 1
2026-05-30 vs AZ 3 1 0 0 0 1 0 0 0
2026-05-29 vs AZ 4 1 0 0 0 0 0 0 0
2026-05-27 @ ATH 4 2 0 0 0 0 3 1 1
2026-05-26 @ ATH 3 0 0 0 0 1 0 0 1
2026-05-25 @ ATH 4 1 1 0 0 0 1 0 1
2026-05-24 @ KC 4 1 0 0 0 0 0 0 1
2026-05-23 @ KC 3 1 0 0 0 0 0 0 0
2026-05-22 @ KC 3 0 0 0 0 0 1 1 0
2026-05-20 vs CWS 2 1 1 0 0 0 0 1 0
2026-05-19 vs CWS 2 0 0 0 0 0 0 1 1
2026-05-18 vs CWS 4 0 0 0 0 0 0 0 0
2026-05-17 vs SD 4 0 0 0 0 0 0 0 2
2026-05-16 vs SD 4 1 0 0 0 2 0 0 1
2026-05-15 vs SD 4 2 1 0 0 0 0 0 0
2026-05-14 @ HOU 3 1 1 0 0 2 0 1 0
2026-05-13 @ HOU 4 0 0 0 0 0 0 0 2
2026-05-12 @ HOU 4 0 0 0 0 0 0 1 0
2026-05-11 @ HOU 3 1 0 0 0 1 0 0 0
2026-05-10 @ CWS 4 0 0 0 0 0 0 0 0
2026-05-09 @ CWS 3 0 0 0 0 0 0 1 1
2026-05-08 @ CWS 2 0 0 0 0 1 0 0 2
2026-05-06 vs ATL 4 3 2 0 0 1 0 0 1
2026-05-05 vs ATL 2 0 0 0 0 0 0 1 2
2026-05-04 vs ATL 4 0 0 0 0 0 0 0 2
2026-05-03 vs KC 4 1 0 0 0 0 0 0 3
2026-05-02 vs KC 4 1 0 0 0 0 0 0 1
2026-05-01 vs KC 4 0 0 0 0 0 0 0 0
2026-04-29 @ MIN 4 2 1 0 0 3 1 0 0
2026-04-28 @ MIN 4 3 0 0 0 1 1 0 0
2026-04-27 @ MIN 3 0 0 0 0 1 0 0 1
2026-04-26 @ STL 3 2 0 0 0 1 0 0 1
2026-04-25 @ STL 4 3 1 0 1 1 3 0 1
2026-04-24 @ STL 4 1 0 0 0 1 0 0 1
2026-04-22 vs ATH 4 0 0 0 0 0 0 0 0
2026-04-21 vs ATH 4 1 0 0 0 0 0 0 1
2026-04-20 vs ATH 4 1 0 0 0 0 1 0 0
2026-04-19 vs TEX 4 1 0 0 0 0 0 0 1
2026-04-18 vs TEX 3 2 0 0 0 2 1 1 1
2026-04-17 vs TEX 2 1 0 0 0 0 0 2 0
2026-04-16 @ SD 4 1 0 0 0 0 1 0 1
2026-04-15 @ SD 4 0 0 0 0 0 1 1 1
2026-04-14 @ SD 3 0 0 0 0 0 0 0 1
2026-04-13 vs HOU 4 0 0 0 0 0 0 0 1
2026-04-12 vs HOU 2 0 0 0 0 1 0 2 0
2026-04-11 vs HOU 3 1 0 0 0 0 2 1 1
2026-04-10 vs HOU 3 1 0 0 0 0 1 2 1
2026-04-08 @ TEX 3 1 0 0 0 0 0 0 1
2026-04-07 @ TEX 4 1 0 0 0 0 1 0 0
2026-04-06 @ TEX 3 0 0 0 0 0 0 0 1
2026-04-05 @ LAA 4 1 0 0 1 3 2 1 0
2026-04-04 @ LAA 3 0 0 0 0 0 0 0 2
2026-04-03 @ LAA 4 1 0 1 0 1 1 0 2
2026-04-01 vs NYY 4 1 0 0 0 0 1 0 1
2026-03-31 vs NYY 3 1 0 0 0 0 0 0 0
2026-03-30 vs NYY 4 3 1 0 0 1 0 0 0
2026-03-29 vs CLE 3 1 0 0 0 0 1 1 0
2026-03-28 vs CLE 5 1 1 0 0 0 1 0 3
2026-03-27 vs CLE 3 1 0 0 1 3 1 0 1
2026-03-26 vs CLE 3 0 0 0 0 0 0 0 3
Transactions
Entire history • newest first.
2026-04-16
2B Cole Young changed number to 2.
2026-04-15
2B Cole Young changed number to 42.
2025-10-21
Seattle Mariners activated 2B Cole Young.
2025-10-04
2B Cole Young roster status changed by Seattle Mariners.
2025-05-31
Seattle Mariners selected the contract of SS Cole Young from Tacoma Rainiers.
2025-01-30
Seattle Mariners invited non-roster SS Cole Young to spring training.
2024-02-07
Seattle Mariners invited non-roster SS Cole Young to spring training.
2023-03-17
SS Cole Young and assigned to Seattle Mariners.
2022-07-26
Seattle Mariners signed SS Cole Young.
Scouting Report
Statcast-style percentiles • Basenerd theme
Season 2026
No Statcast percentile data available.
Spray Chart
Hits only • Stadium overlay
1B 2B 3B HR
MLBAM-style coords scaled into stadium viewBox. Home plate baseline ≈ (125, 199). Stadium SVG: mariners.svg.
Results by Pitch Type
Pitch # Usage% Zone% Whiff% AVG HardHit%
4-Seam Fastball 682 33.1% 55.1% 14.5% .245 38.8%
Sinker 353 17.1% 58.9% 8.6% .299 45.5%
Slider 248 12.0% 42.3% 28.7% .246 38.6%
Changeup 215 10.4% 35.3% 21.1% .177 22.0%
Cutter 178 8.6% 48.9% 19.5% .333 27.3%
Sweeper 148 7.2% 38.5% 29.0% .097 25.0%
Curveball 106 5.1% 43.4% 7.7% .273 55.0%
Splitter 93 4.5% 29.0% 10.4% .250 42.9%
Knuckle Curve 28 1.4% 50.0% 8.3% .000 50.0%
Slurve 12 0.6% 58.3% 100.0% .000 0.0%
Total 2063 100.0% 48.6% 16.8% .242 37.8%
Results by Pitch Category
Category # Usage% Zone% Whiff% AVG HardHit%
Fastball 1213 58.8% 55.3% 13.5% .275 39.6%
Breaking 542 26.3% 42.3% 25.0% .197 40.7%
Offspeed 308 14.9% 33.4% 17.8% .198 28.2%
Total 2063 100.0% 48.6% 16.8% .242 37.8%
MLB Avg - - 50.6% 25.3% .245 41.0%
More